Fitzpatrick, Alabama
Current Conditions -  °F | °C
As of 2:53 PM on Thursday 20 Nov 2014 (Local Time) from KTOI Reporting Station
Scattered Clouds Scattered Clouds  
Wind Chill: 65°   Ceiling: Unl
Heat Index: 65°   Visibility: 10mi
Dew Point: 41°   Wind: 0mph
Humidity: 42%   Direction: NA
Pressure: 30.2"   Gusts: NA
Location:  32.22°N, 85.89°W
Report Text: KTOI 202053Z AUTO 00000KT 10SM SCT055 18/05 A3020 RMK AO2 SLP227 T01830050 56016
Loading
Personal Weather Stations






























Interactive Weather Map New forecast layout! Learn more

10-Day Weather Forecast

Advertisements
Track Severe Weather on mobile